createdAt,value
2023-04-01T00:00:19.885Z,99118.25
2023-04-01T00:03:29.213Z,99115.28
2023-04-01T00:06:38.214Z,99116.31
2023-04-01T00:09:52.896Z,99116.31
2023-04-01T00:12:54.670Z,99120.34
2023-04-01T00:16:19.685Z,99118.34
2023-04-01T00:19:23.206Z,99113.31
2023-04-01T00:22:37.975Z,99110.09
2023-04-01T00:25:39.685Z,99108.72
2023-04-01T00:28:54.946Z,99116.28
2023-04-01T00:32:04.967Z,99113.62
2023-04-01T00:35:19.980Z,99111.53
2023-04-01T00:38:21.957Z,99107.72
2023-04-01T00:41:43.943Z,99100.69
2023-04-01T00:44:51.581Z,99111.81
2023-04-01T00:48:11.978Z,99102.44
2023-04-01T00:51:21.313Z,99098.91
2023-04-01T00:54:37.921Z,99090.03
2023-04-01T00:57:43.272Z,99094.00
2023-04-01T01:00:59.062Z,99086.37
2023-04-01T01:04:00.776Z,99093.72
2023-04-01T01:07:35.980Z,99091.84
2023-04-01T01:10:40.195Z,99090.03
2023-04-01T01:14:04.301Z,99089.44
2023-04-01T01:17:20.300Z,99088.72
2023-04-01T01:20:56.657Z,99096.00
2023-04-01T01:24:24.993Z,99098.97
2023-04-01T01:27:42.194Z,99092.53
2023-04-01T01:31:05.019Z,99079.97
2023-04-01T01:34:34.945Z,99076.75
2023-04-01T01:37:39.161Z,99086.03
2023-04-01T01:40:58.071Z,99082.12
2023-04-01T01:44:17.004Z,99083.88
2023-04-01T01:47:24.884Z,99076.41
2023-04-01T01:50:40.965Z,99079.00
2023-04-01T01:53:46.381Z,99082.25
2023-04-01T01:57:12.996Z,99075.19
2023-04-01T02:00:18.894Z,99077.88
2023-04-01T02:03:37.992Z,99079.09
2023-04-01T02:07:00.977Z,99072.41
2023-04-01T02:10:02.897Z,99075.28
2023-04-01T02:13:28.046Z,99072.69
2023-04-01T02:16:36.079Z,99069.91
2023-04-01T02:20:04.094Z,99067.47
2023-04-01T02:23:07.890Z,99060.50
2023-04-01T02:26:24.014Z,99065.13
2023-04-01T02:29:33.007Z,99056.50
2023-04-01T02:32:50.135Z,99054.00
2023-04-01T02:35:59.860Z,99052.97
2023-04-01T02:39:09.021Z,99057.31
2023-04-01T02:42:24.274Z,99055.72
2023-04-01T02:45:33.183Z,99043.28
2023-04-01T02:48:42.146Z,99048.47
2023-04-01T02:51:58.041Z,99047.00
2023-04-01T02:55:13.993Z,99049.47
2023-04-01T02:58:21.987Z,99046.28
2023-04-01T03:01:30.519Z,99050.84
2023-04-01T03:04:39.001Z,99064.22
2023-04-01T03:07:54.009Z,99050.94
2023-04-01T03:10:55.695Z,99052.66
2023-04-01T03:14:09.999Z,99057.53
2023-04-01T03:17:11.743Z,99056.81
2023-04-01T03:20:26.021Z,99048.13
2023-04-01T03:23:27.855Z,99041.47
2023-04-01T03:26:43.038Z,99047.19
2023-04-01T03:29:51.985Z,99049.44
2023-04-01T03:33:00.259Z,99066.19
2023-04-01T03:36:16.308Z,99064.00
2023-04-01T03:39:18.232Z,99061.41
2023-04-01T03:42:40.136Z,99055.37
2023-04-01T03:45:50.329Z,99074.00
2023-04-01T03:49:05.430Z,99072.50
2023-04-01T03:52:17.006Z,99075.75
2023-04-01T03:55:28.883Z,99083.44
2023-04-01T03:58:37.046Z,99081.38
2023-04-01T04:01:54.009Z,99083.09
2023-04-01T04:04:55.687Z,99092.13
2023-04-01T04:08:11.074Z,99087.16
2023-04-01T04:11:12.850Z,99087.34
2023-04-01T04:14:27.241Z,99078.53
2023-04-01T04:17:36.076Z,99090.66
2023-04-01T04:20:53.159Z,99090.31
2023-04-01T04:24:08.473Z,99084.94
2023-04-01T04:27:10.081Z,99080.00
2023-04-01T04:30:25.107Z,99084.56
2023-04-01T04:33:27.122Z,99087.88
2023-04-01T04:36:42.793Z,99083.62
2023-04-01T04:39:44.474Z,99082.12
2023-04-01T04:43:09.109Z,99073.22
2023-04-01T04:46:12.133Z,99067.22
2023-04-01T04:49:30.052Z,99068.69
2023-04-01T04:52:38.685Z,99060.34
2023-04-01T04:55:55.303Z,99069.22
2023-04-01T04:59:04.094Z,99064.13
2023-04-01T05:02:19.111Z,99070.59
2023-04-01T05:05:20.821Z,99072.28
2023-04-01T05:08:35.074Z,99072.19
2023-04-01T05:11:36.757Z,99066.19
2023-04-01T05:14:52.067Z,99072.00
2023-04-01T05:17:56.399Z,99074.78
2023-04-01T05:21:12.030Z,99066.22
2023-04-01T05:24:13.714Z,99073.91
2023-04-01T05:27:29.085Z,99081.25
2023-04-01T05:30:37.435Z,99087.72
2023-04-01T05:33:52.056Z,99085.03
2023-04-01T05:37:00.070Z,99093.34
2023-04-01T05:40:22.065Z,99091.78
2023-04-01T05:43:31.088Z,99085.66
2023-04-01T05:46:39.921Z,99093.97
2023-04-01T05:49:48.102Z,99095.28
2023-04-01T05:53:03.082Z,99085.19
2023-04-01T05:56:11.163Z,99076.81
2023-04-01T05:59:21.046Z,99080.19
2023-04-01T06:02:36.165Z,99080.06
2023-04-01T06:05:48.105Z,99089.94
2023-04-01T06:08:58.274Z,99091.06
2023-04-01T06:12:27.077Z,99092.97
2023-04-01T06:15:57.091Z,99086.06
2023-04-01T06:19:22.070Z,99087.97
2023-04-01T06:22:59.443Z,99082.53
2023-04-01T06:26:27.197Z,99084.06
2023-04-01T06:30:06.094Z,99075.59
2023-04-01T06:33:44.456Z,99082.44
2023-04-01T06:37:20.427Z,99085.66
2023-04-01T06:41:07.004Z,99092.34
2023-04-01T06:44:42.738Z,99097.31
2023-04-01T06:48:15.432Z,99100.06
2023-04-01T06:51:43.114Z,99093.66
2023-04-01T06:55:03.022Z,99100.28
2023-04-01T06:58:18.491Z,99106.81
2023-04-01T07:01:47.177Z,99107.63
2023-04-01T07:05:05.102Z,99107.19
2023-04-01T07:08:11.659Z,99101.87
2023-04-01T07:11:36.362Z,99096.09
2023-04-01T07:14:52.131Z,99102.72
2023-04-01T07:18:13.040Z,99091.94
2023-04-01T07:21:37.288Z,99098.22
2023-04-01T07:24:53.133Z,99097.78
2023-04-01T07:28:09.101Z,99105.72
2023-04-01T07:31:45.258Z,99100.09
2023-04-01T07:35:08.177Z,99098.91
2023-04-01T07:38:51.267Z,99100.16
2023-04-01T07:42:14.763Z,99102.44
2023-04-01T07:45:38.162Z,99104.41
2023-04-01T07:49:10.859Z,99109.19
2023-04-01T07:56:06.276Z,99103.13
2023-04-01T07:59:38.177Z,99111.41
2023-04-01T08:03:03.613Z,99112.22
2023-04-01T08:06:38.163Z,99112.41
2023-04-01T08:10:13.458Z,99110.97
2023-04-01T08:13:54.141Z,99111.59
2023-04-01T08:17:24.824Z,99114.41
2023-04-01T08:20:47.885Z,99101.91
2023-04-01T08:27:31.166Z,99120.25
2023-04-01T08:30:51.203Z,99119.19
2023-04-01T08:34:04.922Z,99110.97
2023-04-01T08:37:28.369Z,99115.97
2023-04-01T08:41:05.202Z,99112.44
2023-04-01T08:44:35.648Z,99109.47
2023-04-01T08:48:02.215Z,99110.84
2023-04-01T08:51:53.194Z,99101.75
2023-04-01T08:55:22.101Z,99106.34
2023-04-01T08:59:06.195Z,99113.12
2023-04-01T09:02:37.234Z,99111.16
2023-04-01T09:10:07.521Z,99100.56
2023-04-01T09:13:43.158Z,99106.03
2023-04-01T09:17:12.063Z,99105.50
2023-04-01T09:20:45.179Z,99108.41
2023-04-01T09:24:19.045Z,99103.84
2023-04-01T09:27:47.457Z,99107.63
2023-04-01T09:31:19.305Z,99100.78
2023-04-01T09:34:34.560Z,99103.47
2023-04-01T09:38:02.965Z,99107.78
2023-04-01T09:41:30.713Z,99109.53
2023-04-01T09:45:09.247Z,99114.56
2023-04-01T09:48:45.833Z,99110.84
2023-04-01T09:52:07.489Z,99116.84
2023-04-01T09:55:52.236Z,99120.56
2023-04-01T09:59:25.198Z,99110.81
2023-04-01T10:03:07.133Z,99122.84
2023-04-01T10:06:35.185Z,99122.38
2023-04-01T10:10:26.583Z,99128.84
2023-04-01T10:14:07.544Z,99123.69
2023-04-01T10:17:44.573Z,99130.56
2023-04-01T10:25:06.090Z,99136.56
2023-04-01T10:28:50.217Z,99129.44
2023-04-01T10:32:21.273Z,99129.19
2023-04-01T10:35:54.717Z,99126.28
2023-04-01T10:39:25.260Z,99125.25
2023-04-01T10:43:00.676Z,99127.19
2023-04-01T10:46:57.422Z,99120.28
2023-04-01T10:50:42.952Z,99122.22
2023-04-01T10:54:12.284Z,99117.50
2023-04-01T10:57:41.901Z,99121.34
2023-04-01T11:01:23.270Z,99110.78
2023-04-01T11:05:00.422Z,99108.78
2023-04-01T11:12:29.113Z,99115.34
2023-04-01T11:15:57.430Z,99108.69
2023-04-01T11:20:05.967Z,99095.00
2023-04-01T11:23:42.785Z,99094.41
2023-04-01T11:27:15.736Z,99104.00
2023-04-01T11:31:01.389Z,99105.28
2023-04-01T11:34:28.468Z,99106.44
2023-04-01T11:38:03.285Z,99099.84
2023-04-01T11:41:41.382Z,99096.44
2023-04-01T11:45:16.135Z,99114.56
2023-04-01T11:48:55.707Z,99121.88
2023-04-01T11:52:24.877Z,99117.00
2023-04-01T11:55:51.411Z,99117.75
2023-04-01T11:59:31.101Z,99124.22
2023-04-01T12:03:09.402Z,99124.31
2023-04-01T12:06:59.002Z,99129.88
2023-04-01T12:10:22.880Z,99128.91
2023-04-01T12:13:58.656Z,99120.09
2023-04-01T12:17:35.317Z,99119.72
2023-04-01T12:21:03.376Z,99122.50
2023-04-01T12:24:30.853Z,99122.63
2023-04-01T12:28:00.572Z,99111.69
2023-04-01T12:31:25.077Z,99119.66
2023-04-01T12:34:52.274Z,99121.34
2023-04-01T12:38:26.284Z,99122.13
2023-04-01T12:41:47.405Z,99113.03
2023-04-01T12:45:26.359Z,99129.12
2023-04-01T12:49:02.633Z,99116.78
2023-04-01T12:53:02.424Z,99120.41
2023-04-01T12:56:15.321Z,99108.50
2023-04-01T12:59:52.064Z,99106.59
2023-04-01T13:03:30.379Z,99109.03
2023-04-01T13:07:06.634Z,99105.38
2023-04-01T13:10:37.635Z,99106.03
2023-04-01T13:14:15.892Z,99099.84
2023-04-01T13:17:56.496Z,99098.19
2023-04-01T13:21:34.354Z,99089.22
2023-04-01T13:24:51.897Z,99104.25
2023-04-01T13:28:22.477Z,99094.19
2023-04-01T13:32:00.442Z,99103.31
2023-04-01T13:35:36.587Z,99098.59
2023-04-01T13:39:03.131Z,99103.56
2023-04-01T13:42:28.145Z,99110.28
2023-04-01T13:45:52.367Z,99108.59
2023-04-01T13:49:31.361Z,99110.44
2023-04-01T13:53:25.451Z,99110.13
2023-04-01T13:56:57.464Z,99114.06
2023-04-01T14:00:31.484Z,99121.53
2023-04-01T14:03:51.524Z,99119.97
2023-04-01T14:07:17.346Z,99118.56
2023-04-01T14:10:54.333Z,99119.63
2023-04-01T14:14:30.144Z,99124.47
2023-04-01T14:21:49.404Z,99125.59
2023-04-01T14:25:26.792Z,99128.38
2023-04-01T14:29:02.445Z,99124.03
2023-04-01T14:32:59.479Z,99128.19
2023-04-01T14:36:39.957Z,99122.75
2023-04-01T14:40:07.390Z,99118.91
2023-04-01T14:43:59.391Z,99112.62
2023-04-01T14:47:37.418Z,99117.69
2023-04-01T14:50:56.376Z,99109.81
2023-04-01T14:54:30.022Z,99112.69
2023-04-01T14:57:46.718Z,99110.31
2023-04-01T15:01:01.643Z,99107.44
2023-04-01T15:04:48.465Z,99114.03
2023-04-01T15:08:20.406Z,99107.81
2023-04-01T15:11:49.095Z,99107.47
2023-04-01T15:15:25.198Z,99114.06
2023-04-01T15:19:00.606Z,99110.31
2023-04-01T15:22:23.955Z,99104.38
2023-04-01T15:25:56.417Z,99116.63
2023-04-01T15:29:26.514Z,99116.87
2023-04-01T15:33:10.624Z,99116.63
2023-04-01T15:36:42.437Z,99116.25
2023-04-01T15:44:08.462Z,99127.62
2023-04-01T15:47:44.720Z,99122.50
2023-04-01T15:51:16.944Z,99124.34
2023-04-01T15:54:51.123Z,99132.13
2023-04-01T16:01:59.090Z,99138.16
2023-04-01T16:05:36.372Z,99137.97
2023-04-01T16:09:14.515Z,99144.28
2023-04-01T16:12:37.029Z,99136.84
2023-04-01T16:16:15.792Z,99148.56
2023-04-01T16:19:55.429Z,99138.19
2023-04-01T16:23:02.795Z,99158.59
2023-04-01T16:26:31.908Z,99149.28
2023-04-01T16:29:50.521Z,99157.03
2023-04-01T16:33:17.719Z,99160.78
2023-04-01T16:36:39.755Z,99134.38
2023-04-01T16:40:14.470Z,99156.38
2023-04-01T16:44:02.264Z,99165.84
2023-04-01T16:47:11.948Z,99169.16
2023-04-01T16:50:33.205Z,99171.28
2023-04-01T16:54:06.738Z,99165.31
2023-04-01T16:57:58.195Z,99168.25
2023-04-01T17:06:02.348Z,99176.50
2023-04-01T17:09:50.157Z,99176.50
2023-04-01T17:13:30.480Z,99179.13
2023-04-01T17:17:08.164Z,99185.41
2023-04-01T17:20:35.828Z,99188.13
2023-04-01T17:24:25.118Z,99193.75
2023-04-01T17:28:01.105Z,99185.44
2023-04-01T17:31:40.836Z,99202.72
2023-04-01T17:35:07.636Z,99201.88
2023-04-01T17:38:52.364Z,99209.19
2023-04-01T17:42:22.694Z,99210.22
2023-04-01T17:45:54.697Z,99197.50
2023-04-01T17:49:26.512Z,99212.09
2023-04-01T17:52:45.348Z,99213.94
2023-04-01T17:56:24.344Z,99216.00
2023-04-01T17:59:58.388Z,99217.72
2023-04-01T18:03:33.075Z,99225.00
2023-04-01T18:07:28.409Z,99236.81
2023-04-01T18:10:56.692Z,99240.59
2023-04-01T18:14:46.169Z,99248.69
2023-04-01T18:18:37.110Z,99243.50
2023-04-01T18:21:47.671Z,99249.72
2023-04-01T18:25:17.118Z,99256.38
2023-04-01T18:28:35.722Z,99258.44
2023-04-01T18:31:55.952Z,99268.84
2023-04-01T18:35:30.458Z,99265.50
2023-04-01T18:38:46.550Z,99273.00
2023-04-01T18:42:10.108Z,99272.16
2023-04-01T18:45:41.354Z,99276.72
2023-04-01T18:48:53.069Z,99280.25
2023-04-01T18:52:23.129Z,99289.56
2023-04-01T18:55:34.400Z,99289.56
2023-04-01T18:59:15.371Z,99290.78
2023-04-01T19:02:36.245Z,99292.41
2023-04-01T19:05:56.560Z,99293.44
2023-04-01T19:09:36.386Z,99298.81
2023-04-01T19:13:08.624Z,99299.81
2023-04-01T19:20:47.348Z,99305.00
2023-04-01T19:24:19.961Z,99299.75
2023-04-01T19:27:35.405Z,99301.34
2023-04-01T19:31:07.178Z,99299.06
2023-04-01T19:34:32.430Z,99301.19
2023-04-01T19:38:11.146Z,99304.22
2023-04-01T19:41:42.322Z,99297.13
2023-04-01T19:45:08.089Z,99310.00
2023-04-01T19:48:46.273Z,99315.41
2023-04-01T19:52:34.230Z,99317.47
2023-04-01T19:55:58.951Z,99324.34
2023-04-01T19:59:27.894Z,99317.47
2023-04-01T20:03:02.592Z,99325.16
2023-04-01T20:06:40.558Z,99322.81
2023-04-01T20:10:00.138Z,99317.41
2023-04-01T20:13:41.401Z,99326.47
2023-04-01T20:17:10.512Z,99328.13
2023-04-01T20:20:28.300Z,99321.47
2023-04-01T20:23:46.399Z,99324.75
2023-04-01T20:30:46.841Z,99315.94
2023-04-01T20:34:19.478Z,99326.91
2023-04-01T20:37:41.047Z,99311.66
2023-04-01T20:41:09.660Z,99318.41
2023-04-01T20:48:58.668Z,99330.97
2023-04-01T20:52:32.280Z,99337.84
2023-04-01T20:56:14.196Z,99336.63
2023-04-01T20:59:50.233Z,99348.62
2023-04-01T21:03:31.178Z,99362.09
2023-04-01T21:06:58.713Z,99376.25
2023-04-01T21:10:34.217Z,99362.72
2023-04-01T21:14:04.354Z,99364.03
2023-04-01T21:17:46.000Z,99367.97
2023-04-01T21:21:22.239Z,99361.44
2023-04-01T21:24:59.233Z,99369.44
2023-04-01T21:28:22.017Z,99364.44
2023-04-01T21:31:56.243Z,99366.94
2023-04-01T21:35:19.498Z,99373.97
2023-04-01T21:38:56.369Z,99372.31
2023-04-01T21:46:10.620Z,99379.72
2023-04-01T21:49:58.475Z,99379.72
2023-04-01T21:53:35.598Z,99381.09
2023-04-01T21:57:18.272Z,99379.66
2023-04-01T22:00:39.557Z,99371.62
2023-04-01T22:04:18.401Z,99372.34
2023-04-01T22:07:22.799Z,99370.13
2023-04-01T22:10:56.229Z,99387.88
2023-04-01T22:14:24.938Z,99379.16
2023-04-01T22:17:42.555Z,99387.66
2023-04-01T22:21:08.239Z,99386.84
2023-04-01T22:24:30.500Z,99397.06
2023-04-01T22:28:05.258Z,99394.19
2023-04-01T22:31:17.285Z,99389.38
2023-04-01T22:34:55.885Z,99406.00
2023-04-01T22:38:37.257Z,99404.88
2023-04-01T22:42:29.573Z,99398.13
2023-04-01T22:46:05.272Z,99416.84
2023-04-01T22:49:29.266Z,99414.53
2023-04-01T22:52:39.603Z,99416.78
2023-04-01T22:55:59.385Z,99410.16
2023-04-01T22:59:26.262Z,99423.63
2023-04-01T23:02:47.316Z,99426.62
2023-04-01T23:06:04.243Z,99425.50
2023-04-01T23:09:27.290Z,99429.94
2023-04-01T23:12:30.310Z,99435.53
2023-04-01T23:15:46.299Z,99440.62
2023-04-01T23:19:17.953Z,99445.09
2023-04-01T23:22:47.281Z,99442.03
2023-04-01T23:26:12.241Z,99440.47
2023-04-01T23:29:22.706Z,99440.06
2023-04-01T23:32:33.260Z,99433.50
2023-04-01T23:35:57.391Z,99438.94
2023-04-01T23:39:27.245Z,99441.66
2023-04-01T23:42:39.269Z,99447.13
2023-04-01T23:45:47.946Z,99456.47
2023-04-01T23:48:56.562Z,99464.19
2023-04-01T23:52:28.293Z,99469.56
2023-04-01T23:55:42.929Z,99469.63
2023-04-01T23:59:03.973Z,99474.81
